createdAt,value
2018-07-25T00:01:45.079Z,57.53
2018-07-25T00:06:48.591Z,58.22
2018-07-25T00:11:52.142Z,58.10
2018-07-25T00:16:55.613Z,58.52
2018-07-25T00:21:59.292Z,59.22
2018-07-25T00:27:02.895Z,59.06
2018-07-25T00:32:07.818Z,59.45
2018-07-25T00:37:11.298Z,59.42
2018-07-25T00:42:14.883Z,60.12
2018-07-25T00:47:18.354Z,59.87
2018-07-25T00:52:21.932Z,59.92
2018-07-25T00:57:25.560Z,59.71
2018-07-25T01:02:29.124Z,61.01
2018-07-25T01:07:32.733Z,61.04
2018-07-25T01:12:36.331Z,61.49
2018-07-25T01:17:39.825Z,61.60
2018-07-25T01:22:44.171Z,62.10
2018-07-25T01:27:47.681Z,61.28
2018-07-25T01:32:51.247Z,61.85
2018-07-25T01:37:54.756Z,62.00
2018-07-25T01:42:58.313Z,62.58
2018-07-25T01:48:02.317Z,62.78
2018-07-25T01:53:06.405Z,63.38
2018-07-25T01:58:09.921Z,63.68
2018-07-25T02:03:13.858Z,64.02
2018-07-25T02:08:17.424Z,63.91
2018-07-25T02:13:21.815Z,64.71
2018-07-25T02:18:25.323Z,65.57
2018-07-25T02:23:29.104Z,63.78
2018-07-25T02:28:32.609Z,64.05
2018-07-25T02:33:41.553Z,63.46
2018-07-25T02:38:45.031Z,63.42
2018-07-25T02:43:48.670Z,65.43
2018-07-25T02:48:52.162Z,67.46
2018-07-25T02:53:55.713Z,66.37
2018-07-25T02:58:59.230Z,65.56
2018-07-25T03:04:03.143Z,64.86
2018-07-25T03:09:08.701Z,64.16
2018-07-25T03:14:13.015Z,65.99
2018-07-25T03:19:16.725Z,65.88
2018-07-25T03:24:20.326Z,65.77
2018-07-25T03:29:23.825Z,66.09
2018-07-25T03:34:27.370Z,66.00
2018-07-25T03:39:30.858Z,67.47
2018-07-25T03:44:34.389Z,68.89
2018-07-25T03:49:37.916Z,68.59
2018-07-25T03:54:41.857Z,66.27
2018-07-25T03:59:45.336Z,67.55
2018-07-25T04:04:48.897Z,67.82
2018-07-25T04:09:52.517Z,66.98
2018-07-25T04:14:56.570Z,66.51
2018-07-25T04:20:00.085Z,67.82
2018-07-25T04:25:03.727Z,67.28
2018-07-25T04:30:08.857Z,67.70
2018-07-25T04:35:14.233Z,68.44
2018-07-25T04:40:17.863Z,67.62
2018-07-25T04:45:21.497Z,68.52
2018-07-25T04:50:25.090Z,66.88
2018-07-25T04:55:29.249Z,67.52
2018-07-25T05:00:33.729Z,66.39
2018-07-25T05:05:37.307Z,67.39
2018-07-25T05:10:41.359Z,67.12
2018-07-25T05:15:44.911Z,66.46
2018-07-25T05:20:49.416Z,66.10
2018-07-25T05:25:52.961Z,65.16
2018-07-25T05:30:56.536Z,65.77
2018-07-25T05:36:00.121Z,64.38
2018-07-25T05:41:04.550Z,63.80
2018-07-25T05:46:08.361Z,62.61
2018-07-25T05:51:12.055Z,60.97
2018-07-25T05:56:15.673Z,60.36
2018-07-25T06:01:19.173Z,59.61
2018-07-25T06:06:23.010Z,59.13
2018-07-25T06:11:27.102Z,56.62
2018-07-25T06:16:30.655Z,55.01
2018-07-25T06:21:34.178Z,56.10
2018-07-25T06:26:38.191Z,55.68
2018-07-25T06:31:41.762Z,54.74
2018-07-25T06:36:45.901Z,53.83
2018-07-25T06:41:50.030Z,54.11
2018-07-25T06:46:53.582Z,53.85
2018-07-25T06:51:57.939Z,54.34
2018-07-25T06:57:01.617Z,53.39
2018-07-25T07:02:05.127Z,52.22
2018-07-25T07:07:09.950Z,51.57
2018-07-25T07:12:14.798Z,51.16
2018-07-25T07:17:18.475Z,51.14
2018-07-25T07:22:22.012Z,49.57
2018-07-25T07:27:25.589Z,48.62
2018-07-25T07:32:30.085Z,45.82
2018-07-25T07:37:33.971Z,46.01
2018-07-25T07:42:37.448Z,45.66
2018-07-25T07:47:41.012Z,43.81
2018-07-25T07:52:44.921Z,43.59
2018-07-25T07:57:48.545Z,41.94
2018-07-25T08:02:52.068Z,42.69
2018-07-25T08:07:55.616Z,41.79
2018-07-25T08:12:59.941Z,41.55
2018-07-25T08:18:03.531Z,40.09
2018-07-25T08:23:06.969Z,40.34
2018-07-25T08:28:10.728Z,40.04
2018-07-25T08:33:14.233Z,39.20
2018-07-25T08:38:23.461Z,38.23
2018-07-25T08:43:27.157Z,39.69
2018-07-25T08:48:30.802Z,38.44
2018-07-25T08:53:35.100Z,37.79
2018-07-25T08:58:38.653Z,38.13
2018-07-25T09:03:42.162Z,37.27
2018-07-25T09:08:45.914Z,37.02
2018-07-25T09:13:49.441Z,37.96
2018-07-25T09:18:52.969Z,37.09
2018-07-25T09:23:56.714Z,36.73
2018-07-25T09:29:00.284Z,36.83
2018-07-25T09:34:04.016Z,36.64
2018-07-25T09:39:09.913Z,35.50
2018-07-25T09:44:13.508Z,35.51
2018-07-25T09:49:17.285Z,34.18
2018-07-25T09:54:21.203Z,34.16
2018-07-25T09:59:24.754Z,33.74
2018-07-25T10:04:28.344Z,33.45
2018-07-25T10:09:31.862Z,35.02
2018-07-25T10:14:35.394Z,32.50
2018-07-25T10:19:38.985Z,32.94
2018-07-25T10:24:42.453Z,32.22
2018-07-25T10:29:46.138Z,31.89
2018-07-25T10:34:49.637Z,32.57
2018-07-25T10:39:53.181Z,31.39
2018-07-25T10:44:57.411Z,32.17
2018-07-25T10:50:01.054Z,29.65
2018-07-25T10:55:04.639Z,30.23
2018-07-25T11:00:09.741Z,29.56
2018-07-25T11:05:13.240Z,30.36
2018-07-25T11:10:16.850Z,29.56
2018-07-25T11:15:20.892Z,28.95
2018-07-25T11:20:24.455Z,29.90
2018-07-25T11:25:27.896Z,29.17
2018-07-25T11:30:43.553Z,28.92
2018-07-25T11:35:47.867Z,27.97
2018-07-25T11:40:52.023Z,28.26
2018-07-25T11:45:56.222Z,27.79
2018-07-25T11:51:00.266Z,29.07
2018-07-25T11:56:03.783Z,28.02
2018-07-25T12:01:07.350Z,27.67
2018-07-25T12:06:10.910Z,27.72
2018-07-25T12:11:14.635Z,26.99
2018-07-25T12:16:18.438Z,26.90
2018-07-25T12:21:22.093Z,26.12
2018-07-25T12:26:25.562Z,26.18
2018-07-25T12:31:32.973Z,25.32
2018-07-25T12:36:36.475Z,25.93
2018-07-25T12:41:41.300Z,25.28
2018-07-25T12:46:45.597Z,25.29
2018-07-25T12:51:49.157Z,25.10
2018-07-25T12:56:52.663Z,26.61
2018-07-25T13:01:56.557Z,27.59
2018-07-25T13:07:00.062Z,28.16
2018-07-25T13:12:04.235Z,28.89
2018-07-25T13:17:08.404Z,28.69
2018-07-25T13:22:13.449Z,29.84
2018-07-25T13:27:16.976Z,29.40
2018-07-25T13:32:21.391Z,28.97
2018-07-25T13:37:24.920Z,30.02
2018-07-25T13:42:28.544Z,29.65
2018-07-25T13:47:32.173Z,29.69
2018-07-25T13:52:36.234Z,30.49
2018-07-25T13:57:39.829Z,29.29
2018-07-25T14:02:43.459Z,29.70
2018-07-25T14:07:46.959Z,29.01
2018-07-25T14:12:50.506Z,28.84
2018-07-25T14:17:54.218Z,28.96
2018-07-25T14:22:58.469Z,29.18
2018-07-25T14:28:02.047Z,30.70
2018-07-25T14:33:06.878Z,31.48
2018-07-25T14:38:11.247Z,31.47
2018-07-25T14:43:15.306Z,32.77
2018-07-25T14:48:18.847Z,32.02
2018-07-25T14:53:22.438Z,32.14
2018-07-25T14:58:25.944Z,31.82
2018-07-25T15:03:29.453Z,33.55
2018-07-25T15:08:32.969Z,35.33
2018-07-25T15:13:37.281Z,35.89
2018-07-25T15:18:41.288Z,34.93
2018-07-25T15:23:57.346Z,35.12
2018-07-25T15:29:01.652Z,35.00
2018-07-25T15:34:06.151Z,36.87
2018-07-25T15:39:13.734Z,35.57
2018-07-25T15:44:18.331Z,36.05
2018-07-25T15:49:22.134Z,31.68
2018-07-25T15:54:25.781Z,31.33
2018-07-25T15:59:29.336Z,28.93
2018-07-25T16:04:33.318Z,26.72
2018-07-25T16:09:36.846Z,27.68
2018-07-25T16:14:40.477Z,29.80
2018-07-25T16:19:44.131Z,32.16
2018-07-25T16:24:47.673Z,32.55
2018-07-25T16:29:51.169Z,33.84
2018-07-25T16:34:54.849Z,33.44
2018-07-25T16:40:01.118Z,33.72
2018-07-25T16:45:05.010Z,33.01
2018-07-25T16:50:08.628Z,33.95
2018-07-25T16:55:12.361Z,33.66
2018-07-25T17:00:16.321Z,31.91
2018-07-25T17:05:20.775Z,32.58
2018-07-25T17:10:24.333Z,33.31
2018-07-25T17:15:28.219Z,33.23
2018-07-25T17:20:31.746Z,33.66
2018-07-25T17:25:35.306Z,33.82
2018-07-25T17:30:39.321Z,34.73
2018-07-25T17:35:42.889Z,36.63
2018-07-25T17:40:46.458Z,38.26
2018-07-25T17:45:51.068Z,39.53
2018-07-25T17:50:54.600Z,39.37
2018-07-25T17:55:58.200Z,39.53
2018-07-25T18:01:01.746Z,41.17
2018-07-25T18:06:07.502Z,41.66
2018-07-25T18:11:11.470Z,42.99
2018-07-25T18:16:15.054Z,42.68
2018-07-25T18:21:18.576Z,44.44
2018-07-25T18:26:23.266Z,44.84
2018-07-25T18:31:26.791Z,46.14
2018-07-25T18:36:31.386Z,47.69
2018-07-25T18:41:34.923Z,47.40
2018-07-25T18:46:43.972Z,48.70
2018-07-25T18:51:47.472Z,47.55
2018-07-25T18:56:51.008Z,47.76
2018-07-25T19:01:54.668Z,48.32
2018-07-25T19:06:58.291Z,49.62
2018-07-25T19:12:01.774Z,49.07
2018-07-25T19:17:05.342Z,48.76
2018-07-25T19:22:08.914Z,49.83
2018-07-25T19:27:12.564Z,50.62
2018-07-25T19:32:16.612Z,50.24
2018-07-25T19:37:21.982Z,51.48
2018-07-25T19:42:25.479Z,50.83
2018-07-25T19:47:29.005Z,51.55
2018-07-25T19:52:32.595Z,52.20
2018-07-25T19:57:36.142Z,51.81
2018-07-25T20:02:40.700Z,52.37
2018-07-25T20:07:44.392Z,52.49
2018-07-25T20:12:48.079Z,52.56
2018-07-25T20:17:51.661Z,52.76
2018-07-25T20:23:01.792Z,53.37
2018-07-25T20:28:05.560Z,52.71
2018-07-25T20:33:09.091Z,54.40
2018-07-25T20:38:13.607Z,54.73
2018-07-25T20:43:17.204Z,55.16
2018-07-25T20:48:20.944Z,54.56
2018-07-25T20:53:24.448Z,55.53
2018-07-25T20:58:28.051Z,54.52
2018-07-25T21:03:32.520Z,55.72
2018-07-25T21:08:37.032Z,55.56
2018-07-25T21:13:40.505Z,55.83
2018-07-25T21:18:44.047Z,55.90
2018-07-25T21:23:47.587Z,55.23
2018-07-25T21:28:51.640Z,55.97
2018-07-25T21:33:55.710Z,54.95
2018-07-25T21:38:59.462Z,55.81
2018-07-25T21:44:02.975Z,55.93
2018-07-25T21:49:07.020Z,56.21
2018-07-25T21:54:10.560Z,56.27
2018-07-25T21:59:14.119Z,56.90
2018-07-25T22:04:17.774Z,58.17
2018-07-25T22:09:21.372Z,59.34
2018-07-25T22:14:25.917Z,60.35
2018-07-25T22:19:30.140Z,60.33
2018-07-25T22:24:33.612Z,61.01
2018-07-25T22:29:37.174Z,61.03
2018-07-25T22:34:40.655Z,61.15
2018-07-25T22:39:45.080Z,61.53
2018-07-25T22:44:48.907Z,60.25
2018-07-25T22:49:52.475Z,60.25
2018-07-25T22:54:55.932Z,59.93
2018-07-25T22:59:59.455Z,59.62
2018-07-25T23:05:03.062Z,59.89
2018-07-25T23:10:07.604Z,59.79
2018-07-25T23:15:11.180Z,58.98
2018-07-25T23:20:16.137Z,60.06
2018-07-25T23:25:19.613Z,60.63
2018-07-25T23:30:32.549Z,61.42
2018-07-25T23:35:36.083Z,62.14
2018-07-25T23:40:39.565Z,61.17
2018-07-25T23:45:43.147Z,61.40
2018-07-25T23:50:46.773Z,61.65
2018-07-25T23:55:50.310Z,62.91
